createdAt,value
2018-05-17T00:00:45.692Z,13.70
2018-05-17T00:03:14.683Z,13.70
2018-05-17T00:05:43.674Z,13.70
2018-05-17T00:08:12.799Z,13.60
2018-05-17T00:10:41.807Z,13.60
2018-05-17T00:13:10.719Z,13.60
2018-05-17T00:15:46.103Z,13.50
2018-05-17T00:18:15.119Z,13.50
2018-05-17T00:20:44.079Z,13.60
2018-05-17T00:23:13.009Z,13.60
2018-05-17T00:25:41.975Z,13.60
2018-05-17T00:28:11.707Z,13.60
2018-05-17T00:30:40.671Z,13.50
2018-05-17T00:33:09.720Z,13.50
2018-05-17T00:35:38.865Z,13.50
2018-05-17T00:38:07.724Z,13.50
2018-05-17T00:40:36.702Z,13.60
2018-05-17T00:43:06.417Z,13.60
2018-05-17T00:45:36.141Z,13.60
2018-05-17T00:48:05.111Z,13.50
2018-05-17T00:50:34.040Z,13.60
2018-05-17T00:53:21.071Z,13.60
2018-05-17T00:55:50.055Z,13.60
2018-05-17T00:58:19.000Z,13.50
2018-05-17T01:00:48.002Z,13.50
2018-05-17T01:03:17.692Z,13.40
2018-05-17T01:05:46.736Z,13.30
2018-05-17T01:08:15.766Z,13.40
2018-05-17T01:10:44.820Z,13.30
2018-05-17T01:13:14.604Z,13.30
2018-05-17T01:15:44.416Z,13.20
2018-05-17T01:18:14.121Z,13.20
2018-05-17T01:20:43.102Z,13.20
2018-05-17T01:23:12.039Z,13.20
2018-05-17T01:25:41.028Z,13.10
2018-05-17T01:28:09.959Z,13.10
2018-05-17T01:30:38.983Z,13.10
2018-05-17T01:33:08.667Z,13.10
2018-05-17T01:35:37.589Z,13.10
2018-05-17T01:38:24.311Z,13.10
2018-05-17T01:40:53.312Z,13.10
2018-05-17T01:43:22.295Z,13.10
2018-05-17T01:45:51.342Z,13.00
2018-05-17T01:48:20.278Z,13.00
2018-05-17T01:50:49.213Z,13.00
2018-05-17T01:53:18.160Z,13.00
2018-05-17T01:55:47.120Z,12.90
2018-05-17T01:58:16.064Z,12.90
2018-05-17T02:00:45.157Z,12.80
2018-05-17T02:03:14.189Z,12.80
2018-05-17T02:05:43.207Z,12.80
2018-05-17T02:08:12.970Z,12.70
2018-05-17T02:10:42.012Z,12.70
2018-05-17T02:13:10.990Z,12.70
2018-05-17T02:15:40.017Z,12.70
2018-05-17T02:18:09.035Z,12.70
2018-05-17T02:20:37.979Z,12.70
2018-05-17T02:23:07.734Z,12.70
2018-05-17T02:25:36.764Z,12.70
2018-05-17T02:28:05.763Z,12.70
2018-05-17T02:30:34.808Z,12.70
2018-05-17T02:33:03.734Z,12.70
2018-05-17T02:35:32.846Z,12.70
2018-05-17T02:38:01.803Z,12.70
2018-05-17T02:40:30.785Z,12.70
2018-05-17T02:42:59.907Z,12.70
2018-05-17T02:45:28.911Z,12.70
2018-05-17T02:47:57.904Z,12.70
2018-05-17T02:50:26.867Z,12.70
2018-05-17T02:52:55.859Z,12.70
2018-05-17T02:55:24.847Z,12.70
2018-05-17T02:57:53.839Z,12.70
2018-05-17T03:00:22.758Z,12.70
2018-05-17T03:02:51.676Z,12.70
2018-05-17T03:05:21.457Z,12.60
2018-05-17T03:07:50.580Z,12.60
2018-05-17T03:10:20.291Z,12.70
2018-05-17T03:12:49.988Z,12.70
2018-05-17T03:15:18.922Z,12.60
2018-05-17T03:17:47.946Z,12.70
2018-05-17T03:20:17.010Z,12.70
2018-05-17T03:22:46.014Z,12.70
2018-05-17T03:25:14.956Z,12.70
2018-05-17T03:27:43.902Z,12.70
2018-05-17T03:30:12.894Z,12.70
2018-05-17T03:32:41.900Z,12.60
2018-05-17T03:35:10.836Z,12.70
2018-05-17T03:37:39.782Z,12.70
2018-05-17T03:40:08.722Z,12.70
2018-05-17T03:42:38.506Z,12.70
2018-05-17T03:45:07.548Z,12.60
2018-05-17T03:47:36.479Z,12.60
2018-05-17T03:50:05.496Z,12.70
2018-05-17T03:52:34.426Z,12.70
2018-05-17T03:55:03.376Z,12.70
2018-05-17T03:57:32.355Z,12.70
2018-05-17T04:00:01.283Z,12.70
2018-05-17T04:06:04.798Z,12.80
2018-05-17T04:08:40.250Z,12.70
2018-05-17T04:11:09.923Z,12.80
2018-05-17T04:13:38.851Z,12.70
2018-05-17T04:16:07.793Z,12.80
2018-05-17T04:18:36.680Z,12.80
2018-05-17T04:21:05.596Z,12.80
2018-05-17T04:23:35.252Z,12.90
2018-05-17T04:26:04.957Z,12.90
2018-05-17T04:28:33.847Z,12.90
2018-05-17T04:31:02.845Z,13.00
2018-05-17T04:33:31.834Z,13.10
2018-05-17T04:36:00.698Z,13.10
2018-05-17T04:38:30.401Z,13.20
2018-05-17T04:41:00.069Z,13.20
2018-05-17T04:43:28.970Z,13.20
2018-05-17T04:45:58.278Z,13.20
2018-05-17T04:48:27.222Z,13.30
2018-05-17T04:50:56.128Z,13.30
2018-05-17T04:53:25.082Z,13.40
2018-05-17T04:55:54.976Z,13.50
2018-05-17T04:58:23.893Z,13.70
2018-05-17T05:00:52.768Z,13.80
2018-05-17T05:03:22.437Z,14.10
2018-05-17T05:05:51.448Z,14.00
2018-05-17T05:08:20.449Z,14.20
2018-05-17T05:10:50.208Z,14.30
2018-05-17T05:13:19.104Z,14.20
2018-05-17T05:15:48.031Z,14.20
2018-05-17T05:18:16.986Z,14.30
2018-05-17T05:20:45.890Z,14.40
2018-05-17T05:23:14.830Z,14.50
2018-05-17T05:25:44.461Z,14.40
2018-05-17T05:28:13.393Z,14.40
2018-05-17T05:30:42.334Z,14.40
2018-05-17T05:33:11.242Z,14.30
2018-05-17T05:35:40.208Z,14.20
2018-05-17T05:38:09.108Z,14.10
2018-05-17T05:40:38.021Z,14.10
2018-05-17T05:43:06.901Z,14.10
2018-05-17T05:45:35.782Z,14.10
2018-05-17T05:48:04.748Z,14.10
2018-05-17T05:50:34.458Z,14.00
2018-05-17T05:53:03.382Z,14.00
2018-05-17T05:55:32.264Z,14.00
2018-05-17T05:58:01.339Z,14.00
2018-05-17T06:00:31.274Z,14.00
2018-05-17T06:03:00.183Z,14.00
2018-05-17T06:05:29.087Z,14.00
2018-05-17T06:07:58.026Z,14.00
2018-05-17T06:10:27.688Z,14.00
2018-05-17T06:12:56.630Z,13.90
2018-05-17T06:15:26.334Z,14.00
2018-05-17T06:17:56.085Z,14.00
2018-05-17T06:20:25.018Z,14.00
2018-05-17T06:22:53.975Z,14.00
2018-05-17T06:25:22.899Z,13.90
2018-05-17T06:27:51.820Z,13.90
2018-05-17T06:30:21.521Z,13.90
2018-05-17T06:32:50.377Z,13.90
2018-05-17T06:35:19.281Z,14.00
2018-05-17T06:37:48.202Z,14.00
2018-05-17T06:40:17.125Z,13.90
2018-05-17T06:42:46.058Z,14.00
2018-05-17T06:45:15.794Z,13.90
2018-05-17T06:47:44.726Z,13.90
2018-05-17T06:50:13.664Z,13.90
2018-05-17T06:52:42.540Z,13.90
2018-05-17T06:55:12.241Z,14.00
2018-05-17T06:57:41.164Z,13.90
2018-05-17T07:00:10.102Z,14.00
2018-05-17T07:02:39.043Z,14.00
2018-05-17T07:05:08.684Z,14.00
2018-05-17T07:07:37.590Z,13.90
2018-05-17T07:10:06.555Z,14.00
2018-05-17T07:12:35.510Z,14.00
2018-05-17T07:15:05.159Z,14.00
2018-05-17T07:17:34.074Z,14.00
2018-05-17T07:20:02.988Z,14.00
2018-05-17T07:22:31.876Z,14.10
2018-05-17T07:25:00.793Z,14.10
2018-05-17T07:27:29.708Z,14.10
2018-05-17T07:29:58.622Z,14.20
2018-05-17T07:32:27.559Z,14.30
2018-05-17T07:34:57.272Z,14.40
2018-05-17T07:37:26.928Z,14.50
2018-05-17T07:39:55.821Z,14.40
2018-05-17T07:42:24.733Z,14.50
2018-05-17T07:44:53.624Z,14.60
2018-05-17T07:47:22.577Z,14.70
2018-05-17T07:49:51.551Z,14.70
2018-05-17T07:52:21.328Z,14.70
2018-05-17T07:54:50.374Z,14.70
2018-05-17T07:57:19.282Z,14.60
2018-05-17T07:59:48.161Z,14.60
2018-05-17T08:02:17.092Z,14.60
2018-05-17T08:04:46.047Z,14.60
2018-05-17T08:07:15.759Z,14.60
2018-05-17T08:09:44.726Z,14.70
2018-05-17T08:12:13.689Z,14.70
2018-05-17T08:14:43.361Z,14.70
2018-05-17T08:17:12.364Z,14.70
2018-05-17T08:19:41.281Z,14.80
2018-05-17T08:22:10.938Z,14.70
2018-05-17T08:24:41.463Z,14.60
2018-05-17T08:27:10.371Z,14.70
2018-05-17T08:29:40.101Z,14.80
2018-05-17T08:32:09.257Z,14.90
2018-05-17T08:34:38.208Z,14.90
2018-05-17T08:37:07.876Z,14.80
2018-05-17T08:39:36.832Z,14.80
2018-05-17T08:42:05.744Z,14.80
2018-05-17T08:44:34.635Z,14.80
2018-05-17T08:47:03.549Z,14.80
2018-05-17T08:49:32.456Z,14.80
2018-05-17T08:52:02.108Z,14.70
2018-05-17T08:54:31.408Z,14.70
2018-05-17T08:57:00.316Z,14.70
2018-05-17T08:59:29.206Z,14.60
2018-05-17T09:04:49.229Z,14.50
2018-05-17T09:07:21.876Z,14.40
2018-05-17T09:09:50.799Z,14.40
2018-05-17T09:12:19.731Z,14.40
2018-05-17T09:14:48.614Z,14.30
2018-05-17T09:17:17.568Z,14.30
2018-05-17T09:19:46.495Z,14.30
2018-05-17T09:22:15.406Z,14.30
2018-05-17T09:24:44.297Z,14.30
2018-05-17T09:27:13.225Z,14.40
2018-05-17T09:29:42.106Z,14.50
2018-05-17T09:32:11.113Z,14.50
2018-05-17T09:34:39.986Z,14.60
2018-05-17T09:37:08.918Z,14.60
2018-05-17T09:39:37.841Z,14.70
2018-05-17T09:42:06.770Z,14.70
2018-05-17T09:44:35.685Z,14.80
2018-05-17T09:47:04.611Z,14.90
2018-05-17T09:49:33.546Z,15.00
2018-05-17T09:52:02.431Z,15.00
2018-05-17T09:54:31.344Z,15.00
2018-05-17T09:57:00.280Z,15.00
2018-05-17T09:59:29.290Z,15.00
2018-05-17T10:05:08.736Z,14.90
2018-05-17T10:07:37.636Z,14.90
2018-05-17T10:10:06.520Z,14.90
2018-05-17T10:12:35.427Z,15.00
2018-05-17T10:15:04.345Z,15.10
2018-05-17T10:17:33.254Z,15.10
2018-05-17T10:20:02.897Z,15.20
2018-05-17T10:22:31.792Z,15.10
2018-05-17T10:25:00.761Z,15.10
2018-05-17T10:27:29.700Z,15.10
2018-05-17T10:29:58.619Z,15.00
2018-05-17T10:32:27.499Z,14.90
2018-05-17T10:34:56.441Z,15.00
2018-05-17T10:37:25.361Z,15.10
2018-05-17T10:39:54.265Z,15.10
2018-05-17T10:42:23.196Z,15.20
2018-05-17T10:44:52.177Z,15.30
2018-05-17T10:47:21.898Z,15.30
2018-05-17T10:49:50.855Z,15.30
2018-05-17T10:52:19.997Z,15.50
2018-05-17T10:54:48.949Z,15.60
2018-05-17T10:57:17.899Z,15.80
2018-05-17T10:59:46.793Z,15.80
2018-05-17T11:02:15.814Z,15.70
2018-05-17T11:04:44.723Z,15.50
2018-05-17T11:07:13.690Z,15.40
2018-05-17T11:09:42.659Z,15.30
2018-05-17T11:12:11.744Z,15.20
2018-05-17T11:14:40.725Z,15.10
2018-05-17T11:17:09.686Z,14.90
2018-05-17T11:19:39.395Z,14.70
2018-05-17T11:22:08.387Z,14.70
2018-05-17T11:24:38.144Z,14.60
2018-05-17T11:27:07.043Z,14.50
2018-05-17T11:29:35.988Z,14.60
2018-05-17T11:32:05.690Z,14.60
2018-05-17T11:34:35.424Z,14.60
2018-05-17T11:37:04.349Z,14.60
2018-05-17T11:39:33.329Z,14.70
2018-05-17T11:42:02.277Z,14.70
2018-05-17T11:44:31.930Z,14.70
2018-05-17T11:47:00.801Z,14.70
2018-05-17T11:49:29.772Z,14.70
2018-05-17T11:51:58.647Z,14.60
2018-05-17T11:54:28.339Z,14.70
2018-05-17T11:57:00.217Z,14.60
2018-05-17T11:59:29.134Z,14.60
2018-05-17T12:01:58.018Z,14.60
2018-05-17T12:04:26.928Z,14.60
2018-05-17T12:06:55.852Z,14.60
2018-05-17T12:09:24.710Z,14.60
2018-05-17T12:11:53.600Z,14.60
2018-05-17T12:14:23.313Z,14.60
2018-05-17T12:16:52.222Z,14.60
2018-05-17T12:19:21.181Z,14.60
2018-05-17T12:21:50.119Z,14.70
2018-05-17T12:24:19.049Z,14.60
2018-05-17T12:26:47.965Z,14.70
2018-05-17T12:29:16.865Z,14.60
2018-05-17T12:31:45.831Z,14.60
2018-05-17T12:34:14.846Z,14.60
2018-05-17T12:36:43.778Z,14.60
2018-05-17T12:39:12.724Z,14.60
2018-05-17T12:41:41.709Z,14.60
2018-05-17T12:44:10.611Z,14.50
2018-05-17T12:46:39.540Z,14.60
2018-05-17T12:49:08.468Z,14.60
2018-05-17T12:51:37.413Z,14.60
2018-05-17T12:54:06.694Z,14.50
2018-05-17T12:56:36.242Z,14.50
2018-05-17T12:59:05.278Z,14.40
2018-05-17T13:01:34.203Z,14.40
2018-05-17T13:04:03.101Z,14.40
2018-05-17T13:06:32.000Z,14.40
2018-05-17T13:09:00.905Z,14.40
2018-05-17T13:11:30.622Z,14.40
2018-05-17T13:13:59.547Z,14.40
2018-05-17T13:16:29.444Z,14.50
2018-05-17T13:18:58.369Z,14.50
2018-05-17T13:21:27.301Z,14.50
2018-05-17T13:23:56.989Z,14.50
2018-05-17T13:26:25.891Z,14.50
2018-05-17T13:28:54.788Z,14.50
2018-05-17T13:31:23.688Z,14.50
2018-05-17T13:33:53.356Z,14.40
2018-05-17T13:36:22.270Z,14.30
2018-05-17T13:38:51.156Z,14.20
2018-05-17T13:41:20.101Z,14.40
2018-05-17T13:43:49.021Z,14.30
2018-05-17T13:46:17.892Z,14.30
2018-05-17T13:48:47.095Z,14.30
2018-05-17T13:51:16.006Z,14.20
2018-05-17T13:53:44.941Z,14.20
2018-05-17T13:56:13.861Z,14.20
2018-05-17T13:58:42.743Z,14.20
2018-05-17T14:01:11.660Z,14.10
2018-05-17T14:03:40.668Z,14.10
2018-05-17T14:06:09.556Z,14.10
2018-05-17T14:08:38.470Z,14.10
2018-05-17T14:11:08.113Z,14.00
2018-05-17T14:13:37.066Z,14.00
2018-05-17T14:19:03.911Z,13.90
2018-05-17T14:21:36.816Z,13.90
2018-05-17T14:24:06.473Z,13.80
2018-05-17T14:26:35.388Z,13.70
2018-05-17T14:29:04.313Z,13.80
2018-05-17T14:31:34.008Z,13.90
2018-05-17T14:34:02.925Z,13.80
2018-05-17T14:36:31.808Z,13.90
2018-05-17T14:39:01.495Z,13.90
2018-05-17T14:41:30.396Z,13.90
2018-05-17T14:44:00.036Z,13.90
2018-05-17T14:46:28.994Z,13.90
2018-05-17T14:49:19.081Z,13.90
2018-05-17T14:51:48.049Z,13.90
2018-05-17T14:54:16.933Z,13.90
2018-05-17T14:56:45.855Z,13.90
2018-05-17T14:59:15.561Z,13.90
2018-05-17T15:01:44.504Z,13.90
2018-05-17T15:04:13.450Z,13.90
2018-05-17T15:06:42.323Z,13.90
2018-05-17T15:09:11.337Z,14.00
2018-05-17T15:11:41.058Z,14.00
2018-05-17T15:14:10.757Z,14.00
2018-05-17T15:16:40.443Z,14.00
2018-05-17T15:19:09.720Z,14.00
2018-05-17T15:21:38.552Z,14.10
2018-05-17T15:24:08.261Z,14.10
2018-05-17T15:26:37.971Z,14.10
2018-05-17T15:29:07.678Z,14.00
2018-05-17T15:31:54.469Z,14.00
2018-05-17T15:34:33.362Z,14.00
2018-05-17T15:37:03.196Z,14.00
2018-05-17T15:39:32.952Z,14.00
2018-05-17T15:42:04.693Z,13.90
2018-05-17T15:44:42.256Z,13.90
2018-05-17T15:47:17.766Z,13.90
2018-05-17T15:49:49.268Z,13.80
2018-05-17T15:52:19.383Z,13.80
2018-05-17T15:54:48.305Z,13.80
2018-05-17T15:57:17.980Z,13.90
2018-05-17T16:00:01.877Z,13.80
2018-05-17T16:02:30.844Z,13.90
2018-05-17T16:05:00.558Z,14.00
2018-05-17T16:07:30.115Z,14.00
2018-05-17T16:09:59.124Z,14.10
2018-05-17T16:12:28.071Z,14.10
2018-05-17T16:14:57.206Z,14.10
2018-05-17T16:17:26.034Z,14.10
2018-05-17T16:19:56.133Z,14.00
2018-05-17T16:22:33.063Z,14.00
2018-05-17T16:25:02.492Z,14.00
2018-05-17T16:27:31.568Z,14.00
2018-05-17T16:30:03.545Z,14.00
2018-05-17T16:32:32.807Z,14.00
2018-05-17T16:35:01.658Z,14.10
2018-05-17T16:37:31.316Z,14.10
2018-05-17T16:40:00.291Z,14.00
2018-05-17T16:42:29.254Z,14.10
2018-05-17T16:44:59.001Z,14.00
2018-05-17T16:47:27.877Z,14.00
2018-05-17T16:49:56.760Z,14.00
2018-05-17T16:52:26.408Z,14.00
2018-05-17T16:54:55.348Z,13.90
2018-05-17T16:57:24.266Z,13.90
2018-05-17T16:59:53.193Z,13.90
2018-05-17T17:02:22.166Z,13.90
2018-05-17T17:04:51.374Z,13.90
2018-05-17T17:07:20.333Z,13.90
2018-05-17T17:09:49.196Z,13.90
2018-05-17T17:12:18.904Z,13.90
2018-05-17T17:14:48.551Z,13.90
2018-05-17T17:17:17.533Z,13.90
2018-05-17T17:19:46.421Z,13.90
2018-05-17T17:22:15.347Z,13.90
2018-05-17T17:24:44.274Z,13.90
2018-05-17T17:27:13.930Z,13.90
2018-05-17T17:29:42.812Z,13.80
2018-05-17T17:32:12.482Z,13.90
2018-05-17T17:34:42.127Z,13.80
2018-05-17T17:37:11.024Z,13.90
2018-05-17T17:39:39.928Z,13.80
2018-05-17T17:42:08.811Z,13.80
2018-05-17T17:44:37.687Z,13.80
2018-05-17T17:47:06.577Z,13.80
2018-05-17T17:49:35.497Z,13.70
2018-05-17T17:52:04.422Z,13.70
2018-05-17T17:54:33.434Z,13.70
2018-05-17T17:57:02.352Z,13.70
2018-05-17T17:59:31.262Z,13.70
2018-05-17T18:02:00.152Z,13.70
2018-05-17T18:04:29.066Z,13.70
2018-05-17T18:06:58.083Z,13.70
2018-05-17T18:09:26.976Z,13.70
2018-05-17T18:11:55.844Z,13.70
2018-05-17T18:14:25.562Z,13.70
2018-05-17T18:16:55.193Z,13.70
2018-05-17T18:19:24.206Z,13.70
2018-05-17T18:21:53.090Z,13.70
2018-05-17T18:24:22.324Z,13.70
2018-05-17T18:26:51.264Z,13.60
2018-05-17T18:29:20.206Z,13.70
2018-05-17T18:31:49.092Z,13.70
2018-05-17T18:34:18.032Z,13.70
2018-05-17T18:36:46.951Z,13.70
2018-05-17T18:39:15.937Z,13.70
2018-05-17T18:41:44.822Z,13.70
2018-05-17T18:44:13.733Z,13.70
2018-05-17T18:46:42.692Z,13.70
2018-05-17T18:49:11.631Z,13.70
2018-05-17T18:51:40.636Z,13.60
2018-05-17T18:54:09.561Z,13.60
2018-05-17T18:56:38.482Z,13.60
2018-05-17T18:59:07.437Z,13.60
2018-05-17T19:01:36.490Z,13.60
2018-05-17T19:04:05.328Z,13.60
2018-05-17T19:06:34.280Z,13.60
2018-05-17T19:09:03.371Z,13.60
2018-05-17T19:11:32.284Z,13.60
2018-05-17T19:14:01.196Z,13.60
2018-05-17T19:16:30.150Z,13.60
2018-05-17T19:18:59.112Z,13.60
2018-05-17T19:21:28.059Z,13.60
2018-05-17T19:23:56.988Z,13.60
2018-05-17T19:26:25.916Z,13.60
2018-05-17T19:28:55.034Z,13.60
2018-05-17T19:31:24.037Z,13.60
2018-05-17T19:33:52.946Z,13.60
2018-05-17T19:36:21.900Z,13.60
2018-05-17T19:38:51.582Z,13.60
2018-05-17T19:41:29.023Z,13.60
2018-05-17T19:44:11.996Z,13.60
2018-05-17T19:46:40.935Z,13.60
2018-05-17T19:49:15.376Z,13.60
2018-05-17T20:05:32.735Z,13.70
2018-05-17T20:08:02.695Z,13.60
2018-05-17T20:10:31.640Z,13.60
2018-05-17T20:13:01.270Z,13.60
2018-05-17T20:15:30.132Z,13.60
2018-05-17T20:17:59.080Z,13.60
2018-05-17T20:20:27.970Z,13.70
2018-05-17T20:22:56.942Z,13.70
2018-05-17T20:25:25.813Z,13.70
2018-05-17T20:27:55.494Z,13.60
2018-05-17T20:30:24.403Z,13.60
2018-05-17T20:32:53.283Z,13.60
2018-05-17T20:35:22.267Z,13.60
2018-05-17T20:37:51.206Z,13.60
2018-05-17T20:40:20.154Z,13.60
2018-05-17T20:42:49.058Z,13.60
2018-05-17T20:45:17.985Z,13.60
2018-05-17T20:47:46.877Z,13.60
2018-05-17T20:50:16.581Z,13.60
2018-05-17T20:52:45.475Z,13.50
2018-05-17T20:55:14.481Z,13.50
2018-05-17T20:57:43.399Z,13.60
2018-05-17T21:00:12.369Z,13.50
2018-05-17T21:02:41.236Z,13.60
2018-05-17T21:05:10.174Z,13.50
2018-05-17T21:07:39.072Z,13.60
2018-05-17T21:10:08.346Z,13.60
2018-05-17T21:12:37.378Z,13.60
2018-05-17T21:15:06.282Z,13.60
2018-05-17T21:17:35.962Z,13.60
2018-05-17T21:20:04.921Z,13.50
2018-05-17T21:22:33.846Z,13.50
2018-05-17T21:25:02.716Z,13.60
2018-05-17T21:27:31.705Z,13.50
2018-05-17T21:30:00.590Z,13.60
2018-05-17T21:32:29.551Z,13.60
2018-05-17T21:34:58.481Z,13.60
2018-05-17T21:37:27.361Z,13.60
2018-05-17T21:39:56.232Z,13.60
2018-05-17T21:42:25.156Z,13.60
2018-05-17T21:44:54.119Z,13.60
2018-05-17T21:47:23.750Z,13.50
2018-05-17T21:49:52.678Z,13.50
2018-05-17T21:52:21.551Z,13.60
2018-05-17T21:54:50.464Z,13.60
2018-05-17T21:57:20.135Z,13.60
2018-05-17T21:59:49.045Z,13.60
2018-05-17T22:02:17.981Z,13.60
2018-05-17T22:04:46.909Z,13.60
2018-05-17T22:07:15.814Z,13.60
2018-05-17T22:09:44.777Z,13.60
2018-05-17T22:12:13.739Z,13.60
2018-05-17T22:14:42.731Z,13.60
2018-05-17T22:17:11.623Z,13.60
2018-05-17T22:19:40.539Z,13.70
2018-05-17T22:22:09.426Z,13.60
2018-05-17T22:24:38.306Z,13.70
2018-05-17T22:27:07.270Z,13.70
2018-05-17T22:29:36.188Z,13.70
2018-05-17T22:32:05.090Z,13.70
2018-05-17T22:34:34.062Z,13.70
2018-05-17T22:37:02.962Z,13.70
2018-05-17T22:39:32.658Z,13.70
2018-05-17T22:42:01.557Z,13.60
2018-05-17T22:44:30.476Z,13.70
2018-05-17T22:46:59.336Z,13.70
2018-05-17T22:49:28.299Z,13.70
2018-05-17T22:51:57.289Z,13.70
2018-05-17T22:54:26.134Z,13.70
2018-05-17T22:57:12.817Z,13.70
2018-05-17T22:59:41.746Z,13.70
2018-05-17T23:02:10.685Z,13.70
2018-05-17T23:04:40.432Z,13.60
2018-05-17T23:07:11.702Z,13.60
2018-05-17T23:09:40.682Z,13.60
2018-05-17T23:12:09.597Z,13.60
2018-05-17T23:14:38.530Z,13.70
2018-05-17T23:17:07.492Z,13.70
2018-05-17T23:19:37.194Z,13.70
2018-05-17T23:22:06.124Z,13.60
2018-05-17T23:24:35.037Z,13.70
2018-05-17T23:27:03.896Z,13.70
2018-05-17T23:29:32.772Z,13.60
2018-05-17T23:32:02.472Z,13.60
2018-05-17T23:34:31.384Z,13.60
2018-05-17T23:37:00.335Z,13.60
2018-05-17T23:39:29.238Z,13.60
2018-05-17T23:41:58.174Z,13.60
2018-05-17T23:44:27.075Z,13.60
2018-05-17T23:46:56.020Z,13.60
2018-05-17T23:49:25.009Z,13.60
2018-05-17T23:51:54.662Z,13.60
2018-05-17T23:54:23.636Z,13.60
2018-05-17T23:56:52.530Z,13.60
2018-05-17T23:59:21.442Z,13.60
